Galena Knolls, Illinois
Current Conditions -  °F | °C
As of 11:55 PM on Saturday 20 Dec 2014 (Local Time) from KC75 Reporting Station
Overcast Overcast  
Wind Chill: 33°   Ceiling: 3300
Heat Index: 33°   Visibility: 7mi
Dew Point: 28°   Wind: 3mph
Humidity: 82%   Direction: 160°SSE
Pressure: 30.22"   Gusts: NA
Location:  40.915°N, 89.5303°W
Report Text: KC75 210555Z AUTO 16003KT 7SM OVC033 01/M02 A3022 RMK AO2 T00081020 10008 20000 400101055
Loading
Personal Weather Stations






























Interactive Weather Map New forecast layout! Learn more

10-Day Weather Forecast

Advertisements
Track Severe Weather on mobile